createdAt,value
2022-09-27T00:01:18.061Z,46.26
2022-09-27T00:03:46.536Z,46.44
2022-09-27T00:06:17.371Z,46.44
2022-09-27T00:08:45.741Z,46.41
2022-09-27T00:11:23.847Z,46.52
2022-09-27T00:13:52.215Z,46.53
2022-09-27T00:16:21.997Z,46.49
2022-09-27T00:18:50.693Z,46.75
2022-09-27T00:21:19.315Z,46.66
2022-09-27T00:23:47.675Z,46.77
2022-09-27T00:26:16.105Z,46.60
2022-09-27T00:28:44.474Z,46.59
2022-09-27T00:31:22.513Z,46.53
2022-09-27T00:33:54.099Z,46.70
2022-09-27T00:36:25.790Z,46.93
2022-09-27T00:38:55.777Z,46.60
2022-09-27T00:41:26.540Z,46.78
2022-09-27T00:43:57.204Z,46.77
2022-09-27T00:46:34.876Z,46.75
2022-09-27T00:49:10.575Z,46.61
2022-09-27T00:51:42.234Z,46.96
2022-09-27T00:54:14.234Z,46.90
2022-09-27T00:56:44.702Z,46.94
2022-09-27T00:59:20.726Z,46.89
2022-09-27T01:01:51.551Z,47.06
2022-09-27T01:04:25.690Z,47.19
2022-09-27T01:06:54.790Z,47.12
2022-09-27T01:09:25.849Z,47.36
2022-09-27T01:12:04.866Z,47.32
2022-09-27T01:14:50.145Z,47.42
2022-09-27T01:17:39.592Z,47.44
2022-09-27T01:21:01.981Z,47.38
2022-09-27T01:24:01.297Z,47.35
2022-09-27T01:27:10.305Z,47.30
2022-09-27T01:29:51.306Z,47.47
2022-09-27T01:32:30.316Z,47.45
2022-09-27T01:35:07.202Z,47.54
2022-09-27T01:37:44.313Z,47.56
2022-09-27T01:40:25.483Z,47.67
2022-09-27T01:43:01.684Z,47.76
2022-09-27T01:45:36.277Z,47.69
2022-09-27T01:48:12.059Z,47.73
2022-09-27T01:50:47.201Z,47.83
2022-09-27T01:53:22.996Z,47.79
2022-09-27T01:55:55.328Z,47.79
2022-09-27T01:58:31.912Z,47.87
2022-09-27T02:01:02.109Z,47.95
2022-09-27T02:03:36.631Z,48.00
2022-09-27T02:06:13.925Z,47.95
2022-09-27T02:08:48.348Z,47.99
2022-09-27T02:11:17.003Z,48.09
2022-09-27T02:13:53.654Z,48.03
2022-09-27T02:16:30.546Z,48.28
2022-09-27T02:19:10.160Z,48.17
2022-09-27T02:21:51.393Z,48.02
2022-09-27T02:24:28.134Z,48.19
2022-09-27T02:27:07.263Z,48.17
2022-09-27T02:29:42.360Z,48.39
2022-09-27T02:32:10.711Z,48.45
2022-09-27T02:34:41.738Z,48.50
2022-09-27T02:37:10.225Z,48.42
2022-09-27T02:39:39.054Z,48.44
2022-09-27T02:42:08.217Z,48.61
2022-09-27T02:44:36.967Z,48.50
2022-09-27T02:47:29.951Z,48.63
2022-09-27T02:50:26.224Z,48.58
2022-09-27T02:53:08.121Z,48.50
2022-09-27T02:55:50.850Z,48.55
2022-09-27T02:58:31.938Z,48.57
2022-09-27T03:01:09.461Z,48.57
2022-09-27T03:03:45.218Z,48.60
2022-09-27T03:06:18.131Z,48.63
2022-09-27T03:08:47.706Z,48.63
2022-09-27T03:11:16.167Z,48.68
2022-09-27T03:14:07.345Z,48.67
2022-09-27T03:16:33.938Z,48.79
2022-09-27T03:19:02.342Z,48.76
2022-09-27T03:21:32.046Z,48.94
2022-09-27T03:24:00.393Z,49.02
2022-09-27T03:26:28.762Z,49.10
2022-09-27T03:28:57.507Z,49.04
2022-09-27T03:31:25.970Z,49.09
2022-09-27T03:33:54.318Z,49.06
2022-09-27T03:36:22.723Z,48.94
2022-09-27T03:38:52.406Z,48.93
2022-09-27T03:41:20.765Z,49.04
2022-09-27T03:43:49.127Z,49.04
2022-09-27T03:46:17.544Z,48.98
2022-09-27T03:48:46.081Z,49.11
2022-09-27T03:51:14.415Z,49.02
2022-09-27T03:53:42.939Z,49.16
2022-09-27T03:56:12.762Z,49.27
2022-09-27T03:58:41.075Z,49.12
2022-09-27T04:01:09.954Z,49.34
2022-09-27T04:03:38.569Z,49.34
2022-09-27T04:06:07.739Z,49.33
2022-09-27T04:08:36.553Z,49.19
2022-09-27T04:11:05.003Z,49.24
2022-09-27T04:13:34.663Z,49.23
2022-09-27T04:16:04.039Z,48.99
2022-09-27T04:18:32.425Z,49.24
2022-09-27T04:21:00.894Z,49.13
2022-09-27T04:23:30.314Z,49.14
2022-09-27T04:25:58.868Z,49.26
2022-09-27T04:28:28.107Z,49.17
2022-09-27T04:30:58.010Z,49.13
2022-09-27T04:33:26.506Z,49.09
2022-09-27T04:36:12.345Z,49.13
2022-09-27T04:38:40.739Z,49.09
2022-09-27T04:41:09.532Z,49.15
2022-09-27T04:43:38.010Z,49.14
2022-09-27T04:46:07.954Z,49.13
2022-09-27T04:48:37.373Z,49.12
2022-09-27T04:51:06.001Z,49.07
2022-09-27T04:53:34.669Z,49.03
2022-09-27T04:56:06.159Z,49.00
2022-09-27T04:58:35.738Z,49.07
2022-09-27T05:01:04.818Z,49.06
2022-09-27T05:03:34.890Z,49.09
2022-09-27T05:06:03.406Z,49.14
2022-09-27T05:08:31.844Z,49.05
2022-09-27T05:11:01.385Z,48.99
2022-09-27T05:13:29.722Z,49.00
2022-09-27T05:16:05.072Z,49.17
2022-09-27T05:18:34.820Z,49.06
2022-09-27T05:21:03.126Z,48.91
2022-09-27T05:23:31.700Z,49.27
2022-09-27T05:26:00.040Z,49.10
2022-09-27T05:28:28.380Z,49.15
2022-09-27T05:30:56.843Z,49.20
2022-09-27T05:33:25.309Z,49.09
2022-09-27T05:35:56.990Z,49.13
2022-09-27T05:38:26.346Z,49.11
2022-09-27T05:40:54.876Z,49.21
2022-09-27T05:43:24.076Z,49.09
2022-09-27T05:45:53.216Z,49.17
2022-09-27T05:48:22.266Z,49.18
2022-09-27T05:50:50.628Z,49.09
2022-09-27T05:53:20.345Z,49.10
2022-09-27T05:55:48.741Z,48.90
2022-09-27T05:58:17.213Z,48.91
2022-09-27T06:00:45.713Z,48.84
2022-09-27T06:03:15.197Z,48.99
2022-09-27T06:05:45.998Z,48.82
2022-09-27T06:08:16.444Z,48.74
2022-09-27T06:10:46.468Z,48.75
2022-09-27T06:13:17.839Z,48.67
2022-09-27T06:15:47.830Z,48.68
2022-09-27T06:18:18.351Z,48.71
2022-09-27T06:20:47.283Z,48.84
2022-09-27T06:23:17.632Z,48.51
2022-09-27T06:25:48.078Z,48.60
2022-09-27T06:28:17.757Z,48.54
2022-09-27T06:30:48.023Z,48.65
2022-09-27T06:33:19.677Z,48.61
2022-09-27T06:35:50.122Z,48.64
2022-09-27T06:38:20.082Z,48.73
2022-09-27T06:40:50.970Z,48.91
2022-09-27T06:43:21.803Z,48.57
2022-09-27T06:45:50.555Z,48.78
2022-09-27T06:48:19.220Z,48.60
2022-09-27T06:50:49.235Z,48.76
2022-09-27T06:53:18.911Z,48.64
2022-09-27T06:55:47.267Z,48.95
2022-09-27T06:58:34.470Z,48.53
2022-09-27T07:01:03.299Z,48.68
2022-09-27T07:03:37.672Z,48.90
2022-09-27T07:06:17.037Z,48.82
2022-09-27T07:08:45.553Z,48.40
2022-09-27T07:11:15.597Z,48.66
2022-09-27T07:13:45.500Z,48.28
2022-09-27T07:16:14.538Z,48.19
2022-09-27T07:18:43.881Z,48.16
2022-09-27T07:21:12.711Z,47.98
2022-09-27T07:23:41.223Z,47.94
2022-09-27T07:26:11.358Z,47.94
2022-09-27T07:28:41.617Z,48.11
2022-09-27T07:31:11.911Z,47.56
2022-09-27T07:33:43.196Z,47.36
2022-09-27T07:36:13.587Z,47.71
2022-09-27T07:38:41.956Z,47.87
2022-09-27T07:41:14.262Z,47.90
2022-09-27T07:43:44.204Z,47.65
2022-09-27T07:46:14.772Z,47.73
2022-09-27T07:48:43.239Z,47.94
2022-09-27T07:51:12.194Z,48.25
2022-09-27T07:53:41.353Z,48.10
2022-09-27T07:56:09.896Z,48.04
2022-09-27T07:58:38.232Z,48.38
2022-09-27T08:01:07.401Z,48.28
2022-09-27T08:03:38.016Z,48.66
2022-09-27T08:06:06.657Z,48.53
2022-09-27T08:08:35.056Z,48.67
2022-09-27T08:11:12.219Z,48.75
2022-09-27T08:13:40.524Z,49.09
2022-09-27T08:16:09.028Z,49.35
2022-09-27T08:18:38.959Z,49.61
2022-09-27T08:21:07.612Z,49.71
2022-09-27T08:23:37.006Z,50.09
2022-09-27T08:26:05.423Z,50.76
2022-09-27T08:28:33.825Z,51.25
2022-09-27T08:31:02.528Z,52.31
2022-09-27T08:33:33.027Z,52.77
2022-09-27T08:36:04.290Z,53.35
2022-09-27T08:38:32.690Z,53.79
2022-09-27T08:41:09.168Z,54.27
2022-09-27T08:43:48.692Z,54.68
2022-09-27T08:46:34.305Z,54.92
2022-09-27T08:49:11.876Z,55.33
2022-09-27T08:51:43.484Z,55.61
2022-09-27T08:54:20.254Z,55.87
2022-09-27T08:56:49.388Z,56.07
2022-09-27T08:59:22.012Z,56.49
2022-09-27T09:01:51.505Z,56.76
2022-09-27T09:04:29.941Z,56.86
2022-09-27T09:07:14.911Z,57.25
2022-09-27T09:09:56.813Z,57.57
2022-09-27T09:12:47.838Z,57.90
2022-09-27T09:15:26.753Z,57.72
2022-09-27T09:18:16.382Z,57.76
2022-09-27T09:20:58.627Z,57.73
2022-09-27T09:24:06.695Z,57.94
2022-09-27T09:26:42.108Z,57.96
2022-09-27T09:29:37.148Z,57.69
2022-09-27T09:32:21.293Z,57.63
2022-09-27T09:34:55.846Z,57.22
2022-09-27T09:37:35.479Z,57.25
2022-09-27T09:40:18.607Z,56.95
2022-09-27T09:42:53.441Z,57.25
2022-09-27T09:45:27.551Z,57.34
2022-09-27T09:48:04.148Z,57.61
2022-09-27T09:50:43.515Z,57.79
2022-09-27T09:53:17.515Z,57.96
2022-09-27T09:55:53.892Z,58.14
2022-09-27T09:58:27.612Z,58.29
2022-09-27T10:01:01.990Z,58.61
2022-09-27T10:03:30.432Z,58.94
2022-09-27T10:05:58.917Z,59.13
2022-09-27T10:08:27.368Z,59.05
2022-09-27T10:10:57.274Z,59.20
2022-09-27T10:13:25.843Z,58.41
2022-09-27T10:16:03.935Z,58.29
2022-09-27T10:18:33.510Z,58.59
2022-09-27T10:21:07.203Z,58.72
2022-09-27T10:23:35.645Z,58.69
2022-09-27T10:26:07.622Z,57.70
2022-09-27T10:28:38.699Z,57.34
2022-09-27T10:31:10.677Z,56.19
2022-09-27T10:33:53.061Z,55.71
2022-09-27T10:36:26.547Z,55.12
2022-09-27T10:38:57.684Z,53.22
2022-09-27T10:41:34.533Z,53.79
2022-09-27T10:44:27.286Z,53.75
2022-09-27T10:46:59.553Z,52.33
2022-09-27T10:49:33.648Z,52.42
2022-09-27T10:52:04.881Z,51.49
2022-09-27T10:54:37.243Z,49.79
2022-09-27T10:57:19.323Z,49.35
2022-09-27T10:59:53.806Z,48.17
2022-09-27T11:02:25.613Z,47.82
2022-09-27T11:05:15.700Z,47.30
2022-09-27T11:07:52.897Z,46.80
2022-09-27T11:10:28.898Z,47.09
2022-09-27T11:13:13.057Z,47.41
2022-09-27T11:15:56.838Z,47.40
2022-09-27T11:18:37.419Z,47.63
2022-09-27T11:21:16.376Z,47.48
2022-09-27T11:24:09.429Z,47.90
2022-09-27T11:26:51.618Z,48.27
2022-09-27T11:29:31.772Z,48.55
2022-09-27T11:32:21.110Z,48.28
2022-09-27T11:35:07.103Z,46.79
2022-09-27T11:37:48.643Z,46.44
2022-09-27T11:40:35.678Z,46.15
2022-09-27T11:43:23.675Z,45.16
2022-09-27T11:46:18.179Z,45.63
2022-09-27T11:49:22.029Z,46.05
2022-09-27T11:52:21.774Z,46.59
2022-09-27T11:55:18.112Z,46.88
2022-09-27T11:57:57.898Z,47.06
2022-09-27T12:00:35.237Z,47.15
2022-09-27T12:04:01.331Z,45.40
2022-09-27T12:06:44.377Z,45.73
2022-09-27T12:09:19.703Z,45.73
2022-09-27T12:11:52.670Z,44.81
2022-09-27T12:14:30.822Z,45.41
2022-09-27T12:17:00.171Z,45.98
2022-09-27T12:19:34.062Z,45.53
2022-09-27T12:22:06.861Z,45.89
2022-09-27T12:24:36.104Z,45.98
2022-09-27T12:27:11.661Z,44.30
2022-09-27T12:29:43.580Z,44.96
2022-09-27T12:32:17.922Z,44.59
2022-09-27T12:34:56.031Z,44.74
2022-09-27T12:37:29.933Z,44.42
2022-09-27T12:40:04.623Z,42.73
2022-09-27T12:42:38.614Z,42.76
2022-09-27T12:45:13.079Z,42.37
2022-09-27T12:48:00.033Z,42.05
2022-09-27T12:50:37.730Z,42.38
2022-09-27T12:53:15.126Z,42.04
2022-09-27T12:56:30.985Z,42.57
2022-09-27T12:59:26.694Z,42.03
2022-09-27T13:03:03.869Z,42.02
2022-09-27T13:06:11.318Z,42.48
2022-09-27T13:09:02.727Z,42.17
2022-09-27T13:11:47.485Z,42.68
2022-09-27T13:14:21.589Z,42.55
2022-09-27T13:16:51.480Z,42.62
2022-09-27T13:19:44.192Z,42.68
2022-09-27T13:22:39.390Z,42.84
2022-09-27T13:25:55.569Z,42.96
2022-09-27T13:28:38.246Z,42.76
2022-09-27T13:31:10.924Z,42.72
2022-09-27T13:33:47.554Z,42.84
2022-09-27T13:36:33.035Z,42.95
2022-09-27T13:39:22.525Z,43.32
2022-09-27T13:42:11.102Z,43.03
2022-09-27T13:44:54.758Z,43.11
2022-09-27T13:47:32.460Z,43.04
2022-09-27T13:50:18.133Z,42.64
2022-09-27T13:53:04.226Z,42.54
2022-09-27T13:55:47.080Z,42.05
2022-09-27T13:58:45.530Z,42.44
2022-09-27T14:01:24.708Z,42.89
2022-09-27T14:03:55.972Z,42.53
2022-09-27T14:06:30.232Z,42.90
2022-09-27T14:09:03.798Z,42.67
2022-09-27T14:11:38.958Z,42.10
2022-09-27T14:14:15.308Z,41.53
2022-09-27T14:16:47.717Z,39.54
2022-09-27T14:19:20.668Z,39.45
2022-09-27T14:21:50.342Z,39.67
2022-09-27T14:24:29.880Z,39.50
2022-09-27T14:27:25.438Z,39.85
2022-09-27T14:29:56.778Z,39.78
2022-09-27T14:32:27.118Z,39.79
2022-09-27T14:35:28.823Z,39.92
2022-09-27T14:37:57.422Z,39.89
2022-09-27T14:40:26.167Z,39.89
2022-09-27T14:42:59.511Z,39.51
2022-09-27T14:45:37.647Z,39.42
2022-09-27T14:48:22.377Z,39.75
2022-09-27T14:51:04.785Z,39.92
2022-09-27T14:53:37.022Z,40.41
2022-09-27T14:56:08.151Z,40.65
2022-09-27T14:58:47.656Z,40.89
2022-09-27T15:01:18.187Z,40.73
2022-09-27T15:03:48.992Z,40.32
2022-09-27T15:06:18.462Z,40.15
2022-09-27T15:08:49.656Z,40.37
2022-09-27T15:11:19.471Z,40.82
2022-09-27T15:13:55.106Z,40.82
2022-09-27T15:16:25.493Z,40.82
2022-09-27T15:19:03.767Z,40.85
2022-09-27T15:21:34.878Z,40.96
2022-09-27T15:24:04.346Z,40.73
2022-09-27T15:26:41.192Z,40.99
2022-09-27T15:29:20.895Z,41.25
2022-09-27T15:32:00.831Z,41.59
2022-09-27T15:34:30.141Z,41.77
2022-09-27T15:37:00.848Z,41.84
2022-09-27T15:39:33.725Z,41.91
2022-09-27T15:42:09.000Z,41.65
2022-09-27T15:44:47.903Z,41.89
2022-09-27T15:47:51.415Z,41.99
2022-09-27T15:50:35.943Z,42.09
2022-09-27T15:53:06.963Z,41.70
2022-09-27T15:55:41.486Z,41.35
2022-09-27T15:58:16.926Z,41.68
2022-09-27T16:00:58.654Z,41.64
2022-09-27T16:03:28.312Z,41.38
2022-09-27T16:05:58.180Z,41.38
2022-09-27T16:08:28.149Z,41.41
2022-09-27T16:10:58.979Z,41.40
2022-09-27T16:13:32.685Z,41.03
2022-09-27T16:16:04.257Z,41.29
2022-09-27T16:18:32.896Z,41.08
2022-09-27T16:21:01.478Z,41.31
2022-09-27T16:23:29.829Z,41.18
2022-09-27T16:25:58.219Z,41.26
2022-09-27T16:28:26.579Z,41.51
2022-09-27T16:30:55.024Z,41.43
2022-09-27T16:33:24.784Z,41.47
2022-09-27T16:35:53.163Z,41.63
2022-09-27T16:38:21.458Z,41.48
2022-09-27T16:40:49.859Z,41.43
2022-09-27T16:43:21.992Z,41.47
2022-09-27T16:45:50.323Z,41.81
2022-09-27T16:48:18.676Z,41.91
2022-09-27T16:51:05.801Z,42.02
2022-09-27T16:53:34.146Z,41.71
2022-09-27T16:56:02.859Z,41.78
2022-09-27T16:58:31.309Z,41.98
2022-09-27T17:01:00.098Z,42.24
2022-09-27T17:03:29.182Z,42.44
2022-09-27T17:06:04.142Z,42.44
2022-09-27T17:08:32.526Z,42.68
2022-09-27T17:11:01.303Z,42.59
2022-09-27T17:13:29.676Z,42.38
2022-09-27T17:15:58.465Z,42.32
2022-09-27T17:18:26.941Z,41.92
2022-09-27T17:21:00.549Z,41.99
2022-09-27T17:23:30.833Z,42.06
2022-09-27T17:26:05.688Z,42.07
2022-09-27T17:28:34.548Z,41.99
2022-09-27T17:31:10.560Z,41.80
2022-09-27T17:33:43.535Z,41.94
2022-09-27T17:36:15.362Z,41.90
2022-09-27T17:38:47.023Z,41.99
2022-09-27T17:41:17.645Z,42.08
2022-09-27T17:43:50.290Z,41.95
2022-09-27T17:46:21.042Z,41.76
2022-09-27T17:49:19.215Z,41.97
2022-09-27T17:51:50.228Z,41.50
2022-09-27T17:54:21.979Z,41.60
2022-09-27T17:56:51.933Z,41.73
2022-09-27T17:59:20.565Z,41.42
2022-09-27T18:01:49.708Z,41.70
2022-09-27T18:04:19.898Z,41.64
2022-09-27T18:06:49.543Z,41.66
2022-09-27T18:09:19.892Z,41.56
2022-09-27T18:11:48.435Z,41.39
2022-09-27T18:14:17.821Z,41.40
2022-09-27T18:16:46.396Z,41.28
2022-09-27T18:19:16.955Z,40.96
2022-09-27T18:21:45.427Z,40.87
2022-09-27T18:24:14.304Z,41.17
2022-09-27T18:26:48.884Z,41.03
2022-09-27T18:29:19.612Z,40.99
2022-09-27T18:31:49.208Z,41.03
2022-09-27T18:34:18.743Z,41.30
2022-09-27T18:36:48.223Z,41.05
2022-09-27T18:39:19.803Z,41.05
2022-09-27T18:41:50.138Z,41.32
2022-09-27T18:44:19.579Z,41.34
2022-09-27T18:46:49.014Z,41.65
2022-09-27T18:49:21.088Z,41.69
2022-09-27T18:51:52.472Z,41.55
2022-09-27T18:54:23.580Z,41.71
2022-09-27T18:56:53.875Z,41.60
2022-09-27T18:59:24.292Z,41.61
2022-09-27T19:01:53.313Z,41.66
2022-09-27T19:04:24.891Z,41.65
2022-09-27T19:06:56.200Z,41.75
2022-09-27T19:09:26.507Z,41.75
2022-09-27T19:11:56.635Z,41.77
2022-09-27T19:14:25.174Z,41.64
2022-09-27T19:16:56.055Z,41.68
2022-09-27T19:19:24.923Z,41.82
2022-09-27T19:21:53.477Z,41.73
2022-09-27T19:24:22.400Z,41.82
2022-09-27T19:26:54.017Z,41.87
2022-09-27T19:29:24.120Z,41.88
2022-09-27T19:31:52.851Z,42.07
2022-09-27T19:34:21.440Z,41.81
2022-09-27T19:36:50.098Z,42.20
2022-09-27T19:39:18.834Z,42.25
2022-09-27T19:41:47.325Z,42.38
2022-09-27T19:44:15.752Z,42.45
2022-09-27T19:46:46.321Z,42.40
2022-09-27T19:49:14.963Z,42.38
2022-09-27T19:51:43.644Z,42.61
2022-09-27T19:54:13.164Z,42.60
2022-09-27T19:56:41.891Z,42.72
2022-09-27T19:59:10.605Z,42.93
2022-09-27T20:01:41.155Z,42.84
2022-09-27T20:04:13.542Z,43.05
2022-09-27T20:06:42.430Z,42.96
2022-09-27T20:09:11.069Z,42.85
2022-09-27T20:11:39.593Z,42.87
2022-09-27T20:14:08.346Z,42.99
2022-09-27T20:16:41.099Z,43.20
2022-09-27T20:19:12.493Z,43.29
2022-09-27T20:21:40.979Z,43.22
2022-09-27T20:24:09.429Z,43.14
2022-09-27T20:26:38.128Z,43.43
2022-09-27T20:29:08.020Z,43.49
2022-09-27T20:31:39.698Z,43.54
2022-09-27T20:34:15.427Z,43.79
2022-09-27T20:36:45.278Z,43.62
2022-09-27T20:39:16.653Z,43.77
2022-09-27T20:41:47.529Z,43.65
2022-09-27T20:44:18.237Z,43.76
2022-09-27T20:46:48.323Z,43.43
2022-09-27T20:49:19.911Z,43.57
2022-09-27T20:51:49.547Z,43.67
2022-09-27T20:54:18.472Z,43.59
2022-09-27T20:56:49.141Z,43.62
2022-09-27T20:59:20.103Z,43.69
2022-09-27T21:01:50.905Z,43.65
2022-09-27T21:04:23.514Z,43.58
2022-09-27T21:06:53.143Z,43.52
2022-09-27T21:09:21.588Z,43.57
2022-09-27T21:11:51.916Z,43.77
2022-09-27T21:14:20.666Z,43.84
2022-09-27T21:16:49.208Z,43.76
2022-09-27T21:19:18.095Z,43.77
2022-09-27T21:21:48.071Z,43.83
2022-09-27T21:24:16.602Z,43.63
2022-09-27T21:26:45.222Z,43.75
2022-09-27T21:29:15.539Z,43.69
2022-09-27T21:31:44.153Z,43.86
2022-09-27T21:34:12.665Z,43.79
2022-09-27T21:36:40.989Z,43.94
2022-09-27T21:39:10.987Z,43.82
2022-09-27T21:41:39.959Z,43.77
2022-09-27T21:44:09.085Z,43.70
2022-09-27T21:46:41.806Z,43.74
2022-09-27T21:49:11.250Z,43.54
2022-09-27T21:51:41.442Z,43.61
2022-09-27T21:54:15.234Z,43.60
2022-09-27T21:56:44.962Z,43.74
2022-09-27T21:59:18.474Z,43.55
2022-09-27T22:01:47.795Z,43.50
2022-09-27T22:04:16.365Z,43.65
2022-09-27T22:06:45.058Z,43.55
2022-09-27T22:09:18.228Z,43.39
2022-09-27T22:11:47.924Z,43.52
2022-09-27T22:14:17.505Z,43.50
2022-09-27T22:16:45.905Z,43.10
2022-09-27T22:19:16.387Z,43.23
2022-09-27T22:21:44.869Z,43.22
2022-09-27T22:24:17.543Z,43.23
2022-09-27T22:26:49.398Z,43.08
2022-09-27T22:29:18.009Z,42.99
2022-09-27T22:31:46.828Z,43.24
2022-09-27T22:34:18.927Z,43.11
2022-09-27T22:36:47.686Z,43.19
2022-09-27T22:39:17.427Z,42.98
2022-09-27T22:41:45.898Z,43.17
2022-09-27T22:44:14.261Z,43.26
2022-09-27T22:46:42.728Z,43.16
2022-09-27T22:49:11.071Z,43.06
2022-09-27T22:51:39.426Z,42.97
2022-09-27T22:54:08.828Z,43.20
2022-09-27T22:56:38.542Z,43.31
2022-09-27T22:59:07.040Z,43.44
2022-09-27T23:01:36.816Z,43.53
2022-09-27T23:04:05.265Z,43.56
2022-09-27T23:06:33.649Z,43.60
2022-09-27T23:09:02.805Z,43.70
2022-09-27T23:11:31.818Z,43.67
2022-09-27T23:14:05.006Z,43.77
2022-09-27T23:16:36.338Z,43.88
2022-09-27T23:19:06.857Z,43.77
2022-09-27T23:21:35.531Z,43.75
2022-09-27T23:24:03.885Z,43.75
2022-09-27T23:26:32.182Z,43.80
2022-09-27T23:29:03.350Z,43.75
2022-09-27T23:31:33.766Z,43.86
2022-09-27T23:34:05.290Z,43.66
2022-09-27T23:36:33.698Z,43.78
2022-09-27T23:39:02.475Z,43.88
2022-09-27T23:41:31.099Z,43.95
2022-09-27T23:44:01.010Z,43.93
2022-09-27T23:46:29.509Z,44.03
2022-09-27T23:48:58.998Z,43.96
2022-09-27T23:51:27.493Z,44.06
2022-09-27T23:53:57.762Z,44.08
2022-09-27T23:56:26.528Z,44.29
2022-09-27T23:58:54.941Z,44.30
